Платов

Карта отелей и гостиниц, располагающихся рядом с аэропортом Платов :

Платов
Ростов-на-Дону
Ростовская область 47° 29' 38.3784" N, 39° 55' 29.3196" E
Код аэродрома ИКАО: 
URRP
Код аэродрома RU: 
УРРП
Координаты: 
N47.49399° E039.92481°
Превышение над уровнем моря : 
86
Основная полоса: 
05/23
Курс магнитный: 
046,2/226,2
Длина основной ВПП: 
3600
Ширина основной ВПП: 
45
Покрытие основной ВПП: 
Твёрдое (железобетон)
Тип: 
Аэродром
Освещение ВПП: 
Постоянное
Класс аэродрома: 
Международный
Статус: 
Действующий
Принадлежность: 
ГА
Сайт: 
http://platov.aero
E-mail аэродрома: 
rai-info@ar-management.ru
Страна: 
Россия
Регион: 
Ростовская область
Город: 
Ростов-на-Дону
Дополнительная информация: 
Оператор: АО «Ростоваэроинвест». Международный инновационный аэропортовый комплекс «Платов» (первично именовался "Южный"). Позиционируется как крупнейший - после ввода в эксплуатацию, авиаузел юга России. Он должен стать 5-м по пассажиропотоку хабом в России (после Домодедово, Шереметьево, Пулково и Внуково).
Схемы аэропортов: 
Погода: 

Авиационная погода в Платове

Регион: 
Погода METAR: 
URRP 110630Z VRB01MPS CAVOK 27/11 Q1012 R05/CLRD70 NOSIG RMK QFE754/1005
Время наблюдения: 
2020-08-11T06:30:00Z
Температура C: 
27.0
Точка росы: 
11.0
Направление ветра: 
0
Скорость ветра: 
2
Метеорологическая видимость: 
6.21
Условия полета: 
VFR
Аэропорт подробнее: 

Найти трансфер

С помощью этой формы Вы можете найти трансфер из аэропорта Платов в город, аэропорт или вокзал:

Карта места

Javascript is required to view this map.

Погода в аэропортах:

Авиационная погода в Москва - Домодедово

Регион: 
Погода METAR: 
UUDD 110630Z 35003MPS 320V020 9999 -SHRA BKN020CB 18/14 Q1013 R88/290042 NOSIG
Время наблюдения: 
2020-08-11T06:30:00Z
Температура C: 
18.0
Точка росы: 
14.0
Направление ветра: 
350
Скорость ветра: 
6
Метеорологическая видимость: 
6.21
Явления погоды: 
-SHRA
Условия полета: 
MVFR
Аэропорт подробнее: 

Авиационная погода в Днепропетровске

Регион: 
Погода METAR: 
UKDD 110700Z 03008MPS 9999 -SHRA SCT032CB 20/15 Q1013 R08/190060 TEMPO 2100 -TSRA BKN025CB
Время наблюдения: 
2020-08-11T07:00:00Z
Температура C: 
20.0
Точка росы: 
15.0
Направление ветра: 
30
Скорость ветра: 
16
Метеорологическая видимость: 
6.21
Явления погоды: 
-SHRA
Условия полета: 
VFR
Аэропорт подробнее: 

Авиационная погода в Мурманске

Регион: 
Погода METAR: 
ULMM 110630Z 32002MPS 3000 -SHRA FEW008 BKN016CB 09/08 Q1025 R31/190065 NOSIG RMK OBST OBSC QFE761
Время наблюдения: 
2020-08-11T06:30:00Z
Температура C: 
9.0
Точка росы: 
8.0
Направление ветра: 
320
Скорость ветра: 
4
Метеорологическая видимость: 
1.86
Явления погоды: 
-SHRA
Условия полета: 
IFR
Аэропорт подробнее: 

Авиационная погода в Усть-Каменогорске

Регион: 
Погода METAR: 
UASK 110630Z 30006MPS 9999 VCTS SCT036CB BKN075 25/16 Q1002 R30/CLRD60 TEMPO VRB15MPS -TSRA SQ BKN030CB RMK QFE726/0968
Время наблюдения: 
2020-08-11T06:30:00Z
Температура C: 
25.0
Точка росы: 
16.0
Направление ветра: 
300
Скорость ветра: 
12
Метеорологическая видимость: 
6.21
Явления погоды: 
VCTS
Условия полета: 
VFR
Аэропорт подробнее: